createdAt,value
2019-05-07T00:02:18.931Z,10.56
2019-05-07T00:07:42.515Z,10.27
2019-05-07T00:13:04.379Z,10.05
2019-05-07T00:18:25.922Z,9.86
2019-05-07T00:23:47.172Z,9.69
2019-05-07T00:29:08.748Z,9.53
2019-05-07T00:34:37.101Z,9.43
2019-05-07T00:40:12.934Z,9.30
2019-05-07T00:45:46.647Z,9.26
2019-05-07T00:51:33.130Z,9.19
2019-05-07T00:56:54.810Z,9.10
2019-05-07T01:02:16.441Z,8.99
2019-05-07T01:07:38.303Z,8.98
2019-05-07T01:13:00.019Z,8.95
2019-05-07T01:18:23.303Z,8.87
2019-05-07T01:23:45.527Z,8.85
2019-05-07T01:29:07.131Z,8.85
2019-05-07T01:34:35.369Z,8.82
2019-05-07T01:39:57.255Z,8.73
2019-05-07T01:45:19.099Z,8.68
2019-05-07T01:50:42.807Z,8.70
2019-05-07T01:56:04.032Z,8.63
2019-05-07T02:01:25.489Z,8.65
2019-05-07T02:07:05.119Z,8.51
2019-05-07T02:12:31.997Z,8.51
2019-05-07T02:17:54.262Z,8.57
2019-05-07T02:23:15.900Z,8.39
2019-05-07T02:28:37.854Z,8.34
2019-05-07T02:34:02.536Z,8.36
2019-05-07T02:39:34.059Z,8.39
2019-05-07T02:45:05.723Z,8.37
2019-05-07T02:50:33.513Z,8.44
2019-05-07T02:55:56.666Z,8.40
2019-05-07T03:01:18.383Z,8.35
2019-05-07T03:06:39.722Z,8.28
2019-05-07T03:12:03.992Z,8.32
2019-05-07T03:17:25.098Z,8.19
2019-05-07T03:22:47.103Z,8.24
2019-05-07T03:28:08.976Z,8.21
2019-05-07T03:33:47.147Z,8.18
2019-05-07T03:39:08.174Z,8.09
2019-05-07T03:44:53.619Z,8.08
2019-05-07T03:50:15.037Z,8.09
2019-05-07T03:55:36.818Z,8.14
2019-05-07T04:00:58.362Z,7.96
2019-05-07T04:06:19.898Z,7.95
2019-05-07T04:11:43.322Z,7.97
2019-05-07T04:17:14.462Z,7.88
2019-05-07T04:22:29.283Z,7.84
2019-05-07T04:28:14.104Z,7.83
2019-05-07T04:33:40.120Z,7.86
2019-05-07T04:39:03.069Z,7.82
2019-05-07T04:44:25.054Z,7.74
2019-05-07T04:49:46.728Z,7.77
2019-05-07T04:55:08.652Z,7.79
2019-05-07T05:00:33.352Z,7.76
2019-05-07T05:05:54.216Z,7.71
2019-05-07T05:11:15.752Z,7.76
2019-05-07T05:16:37.269Z,7.75
2019-05-07T05:22:18.610Z,7.85
2019-05-07T05:27:40.387Z,7.81
2019-05-07T05:33:04.252Z,7.81
2019-05-07T05:38:25.772Z,7.76
2019-05-07T05:43:58.072Z,7.77
2019-05-07T05:49:19.921Z,7.87
2019-05-07T05:55:04.585Z,7.81
2019-05-07T06:00:48.554Z,7.85
2019-05-07T06:06:32.725Z,7.83
2019-05-07T06:12:22.074Z,7.94
2019-05-07T06:18:17.692Z,7.96
2019-05-07T06:23:37.840Z,8.15
2019-05-07T06:28:59.392Z,8.18
2019-05-07T06:34:21.983Z,8.32
2019-05-07T06:40:06.235Z,8.42
2019-05-07T06:45:33.243Z,8.57
2019-05-07T06:50:57.754Z,8.57
2019-05-07T06:56:19.548Z,8.54
2019-05-07T07:01:49.710Z,8.60
2019-05-07T07:07:27.577Z,8.73
2019-05-07T07:12:43.094Z,8.81
2019-05-07T07:18:05.168Z,8.88
2019-05-07T07:23:27.093Z,9.02
2019-05-07T07:28:48.713Z,9.17
2019-05-07T07:34:12.811Z,9.28
2019-05-07T07:39:34.001Z,9.43
2019-05-07T07:45:14.592Z,9.47
2019-05-07T07:50:36.243Z,9.53
2019-05-07T07:56:16.114Z,9.63
2019-05-07T08:01:49.297Z,9.72
2019-05-07T08:07:12.403Z,9.85
2019-05-07T08:12:34.637Z,9.81
2019-05-07T08:17:56.655Z,9.87
2019-05-07T08:23:18.206Z,9.99
2019-05-07T08:28:41.862Z,10.00
2019-05-07T08:34:25.673Z,10.05
2019-05-07T08:39:47.530Z,10.04
2019-05-07T08:45:27.348Z,10.23
2019-05-07T08:50:49.537Z,10.27
2019-05-07T08:56:12.481Z,10.14
2019-05-07T09:01:34.939Z,10.18
2019-05-07T09:06:56.323Z,10.27
2019-05-07T09:12:18.098Z,10.32
2019-05-07T09:17:39.655Z,10.38
2019-05-07T09:23:02.093Z,10.50
2019-05-07T09:28:25.613Z,10.61
2019-05-07T09:33:49.145Z,10.82
2019-05-07T09:39:12.126Z,10.92
2019-05-07T09:44:34.476Z,11.03
2019-05-07T09:50:04.514Z,11.04
2019-05-07T09:55:19.702Z,11.18
2019-05-07T10:00:42.457Z,11.21
2019-05-07T10:06:04.201Z,11.44
2019-05-07T10:11:35.890Z,11.58
2019-05-07T10:17:09.515Z,11.73
2019-05-07T10:22:32.166Z,11.76
2019-05-07T10:27:54.176Z,11.92
2019-05-07T10:33:16.013Z,12.03
2019-05-07T10:38:37.619Z,12.12
2019-05-07T10:43:59.156Z,12.04
2019-05-07T10:49:27.968Z,12.24
2019-05-07T10:54:58.399Z,12.55
2019-05-07T11:00:16.271Z,12.68
2019-05-07T11:05:37.990Z,12.69
2019-05-07T11:10:59.812Z,12.67
2019-05-07T11:16:24.983Z,12.74
2019-05-07T11:21:46.820Z,12.92
2019-05-07T11:27:08.351Z,13.05
2019-05-07T11:32:29.658Z,13.22
2019-05-07T11:37:52.071Z,13.03
2019-05-07T11:43:33.153Z,13.04
2019-05-07T11:49:01.056Z,12.88
2019-05-07T11:54:22.856Z,12.67
2019-05-07T11:59:44.728Z,12.71
2019-05-07T12:05:06.435Z,12.90
2019-05-07T12:10:28.022Z,13.04
2019-05-07T12:15:51.598Z,12.81
2019-05-07T12:21:20.214Z,12.86
2019-05-07T12:26:39.172Z,12.80
2019-05-07T12:32:24.513Z,12.76
2019-05-07T12:37:49.458Z,12.81
2019-05-07T12:43:10.639Z,12.63
2019-05-07T12:48:32.674Z,12.36
2019-05-07T12:53:59.322Z,12.41
2019-05-07T12:59:21.852Z,12.31
2019-05-07T13:04:43.925Z,12.27
2019-05-07T13:10:08.568Z,12.29
2019-05-07T13:15:32.668Z,12.78
2019-05-07T13:20:54.616Z,12.98
2019-05-07T13:26:16.040Z,13.03
2019-05-07T13:31:38.928Z,13.20
2019-05-07T13:37:05.353Z,13.30
2019-05-07T13:43:02.881Z,13.07
2019-05-07T13:48:25.536Z,13.29
2019-05-07T13:53:47.693Z,12.91
2019-05-07T13:59:12.995Z,12.61
2019-05-07T14:04:34.259Z,12.41
2019-05-07T14:09:56.306Z,12.02
2019-05-07T14:15:18.552Z,11.88
2019-05-07T14:20:42.392Z,11.83
2019-05-07T14:26:03.939Z,11.87
2019-05-07T14:31:26.169Z,11.92
2019-05-07T14:37:07.660Z,12.02
2019-05-07T14:42:38.535Z,11.90
2019-05-07T14:48:00.154Z,12.07
2019-05-07T14:53:22.521Z,12.04
2019-05-07T14:58:44.265Z,12.13
2019-05-07T15:04:06.105Z,12.20
2019-05-07T15:09:28.255Z,12.10
2019-05-07T15:14:50.053Z,12.44
2019-05-07T15:20:11.808Z,12.49
2019-05-07T15:25:33.608Z,12.30
2019-05-07T15:31:12.296Z,12.57
2019-05-07T15:36:34.158Z,12.39
2019-05-07T15:41:55.723Z,12.40
2019-05-07T15:47:22.728Z,12.30
2019-05-07T15:52:58.644Z,12.02
2019-05-07T15:58:17.004Z,11.75
2019-05-07T16:03:42.885Z,11.61
2019-05-07T16:09:07.209Z,11.37
2019-05-07T16:14:29.032Z,11.08
2019-05-07T16:19:54.598Z,11.23
2019-05-07T16:25:14.869Z,11.10
2019-05-07T16:30:36.496Z,10.69
2019-05-07T16:35:58.187Z,10.47
2019-05-07T16:41:19.858Z,10.42
2019-05-07T16:46:42.237Z,10.30
2019-05-07T16:52:07.425Z,10.23
2019-05-07T16:58:07.195Z,10.19
2019-05-07T17:03:35.287Z,10.13
2019-05-07T17:09:02.587Z,10.08
2019-05-07T17:14:24.223Z,10.12
2019-05-07T17:19:45.973Z,10.03
2019-05-07T17:25:27.278Z,10.02
2019-05-07T17:30:49.229Z,9.98
2019-05-07T17:36:12.104Z,9.95
2019-05-07T17:41:34.355Z,9.89
2019-05-07T17:46:56.107Z,9.81
2019-05-07T17:52:17.762Z,9.86
2019-05-07T17:57:41.769Z,9.88
2019-05-07T18:03:15.678Z,9.95
2019-05-07T18:08:37.289Z,10.00
2019-05-07T18:13:58.776Z,10.02
2019-05-07T18:19:22.210Z,9.97
2019-05-07T18:24:43.667Z,9.95
2019-05-07T18:30:06.289Z,9.99
2019-05-07T18:35:28.491Z,10.05
2019-05-07T18:40:50.261Z,10.05
2019-05-07T18:46:12.816Z,10.05
2019-05-07T18:51:34.961Z,10.07
2019-05-07T18:56:56.593Z,10.04
2019-05-07T19:02:18.756Z,10.07
2019-05-07T19:07:41.735Z,10.01
2019-05-07T19:13:04.210Z,9.94
2019-05-07T19:18:26.371Z,9.95
2019-05-07T19:23:50.029Z,9.84
2019-05-07T19:29:12.657Z,9.82
2019-05-07T19:34:34.585Z,9.82
2019-05-07T19:39:56.376Z,9.76
2019-05-07T19:45:21.673Z,9.81
2019-05-07T19:50:42.110Z,9.68
2019-05-07T19:56:16.647Z,9.70
2019-05-07T20:01:52.845Z,9.70
2019-05-07T20:07:14.863Z,9.65
2019-05-07T20:12:36.449Z,9.58
2019-05-07T20:17:58.187Z,9.60
2019-05-07T20:23:19.617Z,9.60
2019-05-07T20:28:41.878Z,9.52
2019-05-07T20:34:03.642Z,9.53
2019-05-07T20:39:25.470Z,9.56
2019-05-07T20:44:47.181Z,9.50
2019-05-07T20:50:08.898Z,9.48
2019-05-07T20:55:53.066Z,9.50
2019-05-07T21:01:14.773Z,9.45
2019-05-07T21:06:36.738Z,9.52
2019-05-07T21:11:58.371Z,9.50
2019-05-07T21:17:20.018Z,9.49
2019-05-07T21:22:42.519Z,9.37
2019-05-07T21:28:04.093Z,9.38
2019-05-07T21:33:25.789Z,9.34
2019-05-07T21:38:47.446Z,9.33
2019-05-07T21:44:09.242Z,9.39
2019-05-07T21:49:32.301Z,9.35
2019-05-07T21:55:02.392Z,9.39
2019-05-07T22:00:44.557Z,9.48
2019-05-07T22:06:09.711Z,9.50
2019-05-07T22:11:32.304Z,9.58
2019-05-07T22:16:54.607Z,9.56
2019-05-07T22:22:16.407Z,9.51
2019-05-07T22:27:38.309Z,9.53
2019-05-07T22:33:05.384Z,9.59
2019-05-07T22:38:26.621Z,9.57
2019-05-07T22:43:48.347Z,9.58
2019-05-07T22:49:12.090Z,9.59
2019-05-07T22:54:33.909Z,9.61
2019-05-07T22:59:55.503Z,9.58
2019-05-07T23:05:16.973Z,9.59
2019-05-07T23:10:38.705Z,9.62
2019-05-07T23:16:02.300Z,9.68
2019-05-07T23:21:24.667Z,9.69
2019-05-07T23:26:50.506Z,9.63
2019-05-07T23:32:12.628Z,9.62
2019-05-07T23:37:34.500Z,9.66
2019-05-07T23:42:57.976Z,9.64
2019-05-07T23:48:19.688Z,9.68
2019-05-07T23:53:44.189Z,9.65
2019-05-07T23:59:05.023Z,9.74
